sensor_id;sensor_type;location;lat;lon;timestamp;P1;durP1;ratioP1;P2;durP2;ratioP2
73980;SDS011;62348;51.412;5.436;2022-11-15T00:01:41;36.90;;;22.85;;
73980;SDS011;62348;51.412;5.436;2022-11-15T00:04:06;38.45;;;22.15;;
73980;SDS011;62348;51.412;5.436;2022-11-15T00:06:32;34.42;;;23.15;;
73980;SDS011;62348;51.412;5.436;2022-11-15T00:08:58;33.10;;;21.45;;
73980;SDS011;62348;51.412;5.436;2022-11-15T00:11:24;33.70;;;22.77;;
73980;SDS011;62348;51.412;5.436;2022-11-15T00:13:49;34.95;;;23.67;;
73980;SDS011;62348;51.412;5.436;2022-11-15T00:16:15;31.80;;;21.60;;
73980;SDS011;62348;51.412;5.436;2022-11-15T00:18:40;34.70;;;22.77;;
73980;SDS011;62348;51.412;5.436;2022-11-15T00:21:07;35.78;;;22.42;;
73980;SDS011;62348;51.412;5.436;2022-11-15T00:23:35;34.15;;;21.63;;
73980;SDS011;62348;51.412;5.436;2022-11-15T00:26:01;31.55;;;22.38;;
73980;SDS011;62348;51.412;5.436;2022-11-15T00:28:26;32.63;;;21.55;;
73980;SDS011;62348;51.412;5.436;2022-11-15T00:30:51;32.63;;;22.05;;
73980;SDS011;62348;51.412;5.436;2022-11-15T00:33:17;35.15;;;22.70;;
73980;SDS011;62348;51.412;5.436;2022-11-15T00:35:43;31.73;;;22.00;;
73980;SDS011;62348;51.412;5.436;2022-11-15T00:38:08;35.55;;;23.23;;
73980;SDS011;62348;51.412;5.436;2022-11-15T00:40:34;33.35;;;23.17;;
73980;SDS011;62348;51.412;5.436;2022-11-15T00:42:59;36.60;;;22.42;;
73980;SDS011;62348;51.412;5.436;2022-11-15T00:45:25;36.88;;;22.63;;
73980;SDS011;62348;51.412;5.436;2022-11-15T00:47:51;30.95;;;22.45;;
73980;SDS011;62348;51.412;5.436;2022-11-15T00:50:16;31.73;;;21.75;;
73980;SDS011;62348;51.412;5.436;2022-11-15T00:52:42;35.20;;;22.08;;
73980;SDS011;62348;51.412;5.436;2022-11-15T00:55:15;34.05;;;23.67;;
73980;SDS011;62348;51.412;5.436;2022-11-15T00:57:41;35.97;;;23.40;;
73980;SDS011;62348;51.412;5.436;2022-11-15T01:00:07;32.25;;;22.75;;
73980;SDS011;62348;51.412;5.436;2022-11-15T01:02:34;36.28;;;24.25;;
73980;SDS011;62348;51.412;5.436;2022-11-15T01:04:59;33.35;;;22.50;;
73980;SDS011;62348;51.412;5.436;2022-11-15T01:07:25;34.60;;;23.30;;
73980;SDS011;62348;51.412;5.436;2022-11-15T01:09:50;36.03;;;23.48;;
73980;SDS011;62348;51.412;5.436;2022-11-15T01:12:15;37.88;;;22.60;;
73980;SDS011;62348;51.412;5.436;2022-11-15T01:14:41;36.08;;;22.88;;
73980;SDS011;62348;51.412;5.436;2022-11-15T01:17:06;34.95;;;23.10;;
73980;SDS011;62348;51.412;5.436;2022-11-15T01:19:31;36.28;;;23.27;;
73980;SDS011;62348;51.412;5.436;2022-11-15T01:21:57;35.60;;;23.48;;
73980;SDS011;62348;51.412;5.436;2022-11-15T01:24:22;36.25;;;23.52;;
73980;SDS011;62348;51.412;5.436;2022-11-15T01:26:48;39.65;;;23.77;;
73980;SDS011;62348;51.412;5.436;2022-11-15T01:29:13;42.17;;;26.48;;
73980;SDS011;62348;51.412;5.436;2022-11-15T01:31:39;39.03;;;25.23;;
73980;SDS011;62348;51.412;5.436;2022-11-15T01:34:04;48.50;;;27.27;;
73980;SDS011;62348;51.412;5.436;2022-11-15T01:36:29;47.17;;;29.08;;
73980;SDS011;62348;51.412;5.436;2022-11-15T01:38:58;50.13;;;27.38;;
73980;SDS011;62348;51.412;5.436;2022-11-15T01:41:25;49.58;;;28.17;;
73980;SDS011;62348;51.412;5.436;2022-11-15T01:43:54;45.65;;;27.52;;
73980;SDS011;62348;51.412;5.436;2022-11-15T01:48:46;47.63;;;27.52;;
73980;SDS011;62348;51.412;5.436;2022-11-15T01:51:13;45.13;;;27.13;;
73980;SDS011;62348;51.412;5.436;2022-11-15T01:53:41;50.28;;;27.85;;
73980;SDS011;62348;51.412;5.436;2022-11-15T01:56:11;44.92;;;27.25;;
73980;SDS011;62348;51.412;5.436;2022-11-15T01:58:41;44.97;;;26.33;;
73980;SDS011;62348;51.412;5.436;2022-11-15T02:01:10;52.40;;;29.00;;
73980;SDS011;62348;51.412;5.436;2022-11-15T02:03:56;49.10;;;28.55;;
73980;SDS011;62348;51.412;5.436;2022-11-15T02:06:24;53.58;;;29.48;;
73980;SDS011;62348;51.412;5.436;2022-11-15T02:08:50;47.17;;;28.45;;
73980;SDS011;62348;51.412;5.436;2022-11-15T02:11:16;53.70;;;30.48;;
73980;SDS011;62348;51.412;5.436;2022-11-15T02:13:42;45.00;;;27.13;;
73980;SDS011;62348;51.412;5.436;2022-11-15T02:24:57;43.28;;;25.05;;
73980;SDS011;62348;51.412;5.436;2022-11-15T02:38:06;51.97;;;28.85;;
73980;SDS011;62348;51.412;5.436;2022-11-15T02:41:01;46.92;;;28.65;;
73980;SDS011;62348;51.412;5.436;2022-11-15T02:43:29;46.40;;;28.23;;
73980;SDS011;62348;51.412;5.436;2022-11-15T02:49:31;46.08;;;27.27;;
73980;SDS011;62348;51.412;5.436;2022-11-15T02:51:59;46.38;;;25.95;;
73980;SDS011;62348;51.412;5.436;2022-11-15T02:54:26;41.60;;;26.08;;
73980;SDS011;62348;51.412;5.436;2022-11-15T02:56:56;45.50;;;27.35;;
73980;SDS011;62348;51.412;5.436;2022-11-15T03:02:46;38.47;;;27.08;;
73980;SDS011;62348;51.412;5.436;2022-11-15T03:05:17;44.83;;;26.38;;
73980;SDS011;62348;51.412;5.436;2022-11-15T03:08:08;42.03;;;26.92;;
73980;SDS011;62348;51.412;5.436;2022-11-15T03:13:19;42.92;;;27.00;;
73980;SDS011;62348;51.412;5.436;2022-11-15T03:16:09;48.28;;;28.38;;
73980;SDS011;62348;51.412;5.436;2022-11-15T03:18:41;48.65;;;30.02;;
73980;SDS011;62348;51.412;5.436;2022-11-15T03:21:08;51.33;;;29.40;;
73980;SDS011;62348;51.412;5.436;2022-11-15T03:23:36;50.55;;;29.38;;
73980;SDS011;62348;51.412;5.436;2022-11-15T03:26:04;52.58;;;28.52;;
73980;SDS011;62348;51.412;5.436;2022-11-15T03:28:37;51.50;;;29.60;;
73980;SDS011;62348;51.412;5.436;2022-11-15T03:31:07;51.83;;;28.30;;
73980;SDS011;62348;51.412;5.436;2022-11-15T03:33:55;47.15;;;26.50;;
73980;SDS011;62348;51.412;5.436;2022-11-15T03:36:22;48.30;;;26.52;;
73980;SDS011;62348;51.412;5.436;2022-11-15T03:38:50;46.40;;;27.65;;
73980;SDS011;62348;51.412;5.436;2022-11-15T03:41:27;47.90;;;28.30;;
73980;SDS011;62348;51.412;5.436;2022-11-15T03:44:20;51.17;;;28.10;;
73980;SDS011;62348;51.412;5.436;2022-11-15T03:47:00;46.95;;;28.55;;
73980;SDS011;62348;51.412;5.436;2022-11-15T03:49:35;46.63;;;27.63;;
73980;SDS011;62348;51.412;5.436;2022-11-15T03:52:03;44.08;;;27.58;;
73980;SDS011;62348;51.412;5.436;2022-11-15T03:54:29;43.67;;;26.17;;
73980;SDS011;62348;51.412;5.436;2022-11-15T03:56:55;49.05;;;27.27;;
73980;SDS011;62348;51.412;5.436;2022-11-15T03:59:20;49.05;;;29.80;;
73980;SDS011;62348;51.412;5.436;2022-11-15T04:01:46;45.92;;;27.40;;
73980;SDS011;62348;51.412;5.436;2022-11-15T04:04:11;50.83;;;29.42;;
73980;SDS011;62348;51.412;5.436;2022-11-15T04:06:36;48.33;;;29.05;;
73980;SDS011;62348;51.412;5.436;2022-11-15T04:09:02;49.58;;;28.20;;
73980;SDS011;62348;51.412;5.436;2022-11-15T04:11:27;51.70;;;28.85;;
73980;SDS011;62348;51.412;5.436;2022-11-15T04:13:53;51.53;;;28.02;;
73980;SDS011;62348;51.412;5.436;2022-11-15T04:16:18;43.33;;;28.02;;
73980;SDS011;62348;51.412;5.436;2022-11-15T04:18:43;48.38;;;28.80;;
73980;SDS011;62348;51.412;5.436;2022-11-15T04:21:09;48.65;;;26.77;;
73980;SDS011;62348;51.412;5.436;2022-11-15T04:23:53;45.25;;;27.08;;
73980;SDS011;62348;51.412;5.436;2022-11-15T04:26:50;44.75;;;27.58;;
73980;SDS011;62348;51.412;5.436;2022-11-15T04:29:16;50.80;;;28.90;;
73980;SDS011;62348;51.412;5.436;2022-11-15T04:32:00;50.92;;;28.27;;
73980;SDS011;62348;51.412;5.436;2022-11-15T04:34:26;44.47;;;27.80;;
73980;SDS011;62348;51.412;5.436;2022-11-15T04:36:51;43.83;;;27.38;;
73980;SDS011;62348;51.412;5.436;2022-11-15T04:39:35;40.92;;;26.45;;
73980;SDS011;62348;51.412;5.436;2022-11-15T04:42:01;45.00;;;28.00;;
73980;SDS011;62348;51.412;5.436;2022-11-15T04:44:26;48.55;;;28.52;;
73980;SDS011;62348;51.412;5.436;2022-11-15T04:46:51;46.88;;;29.02;;
73980;SDS011;62348;51.412;5.436;2022-11-15T04:49:17;44.35;;;28.20;;
73980;SDS011;62348;51.412;5.436;2022-11-15T04:51:42;41.30;;;26.50;;
73980;SDS011;62348;51.412;5.436;2022-11-15T04:54:08;43.75;;;28.35;;
73980;SDS011;62348;51.412;5.436;2022-11-15T04:56:33;44.75;;;26.77;;
73980;SDS011;62348;51.412;5.436;2022-11-15T04:58:58;52.97;;;29.38;;
73980;SDS011;62348;51.412;5.436;2022-11-15T05:01:24;50.35;;;29.25;;
73980;SDS011;62348;51.412;5.436;2022-11-15T05:03:49;42.72;;;27.23;;
73980;SDS011;62348;51.412;5.436;2022-11-15T05:06:33;46.03;;;28.65;;
73980;SDS011;62348;51.412;5.436;2022-11-15T05:08:58;47.90;;;27.73;;
73980;SDS011;62348;51.412;5.436;2022-11-15T05:11:24;46.17;;;27.35;;
73980;SDS011;62348;51.412;5.436;2022-11-15T05:13:49;44.75;;;27.58;;
73980;SDS011;62348;51.412;5.436;2022-11-15T05:16:15;47.25;;;28.02;;
73980;SDS011;62348;51.412;5.436;2022-11-15T05:18:41;46.38;;;26.55;;
73980;SDS011;62348;51.412;5.436;2022-11-15T05:21:07;47.22;;;27.48;;
73980;SDS011;62348;51.412;5.436;2022-11-15T05:23:34;43.75;;;26.38;;
73980;SDS011;62348;51.412;5.436;2022-11-15T05:26:00;46.53;;;27.08;;
73980;SDS011;62348;51.412;5.436;2022-11-15T05:28:26;46.42;;;26.90;;
73980;SDS011;62348;51.412;5.436;2022-11-15T05:30:52;44.30;;;25.50;;
73980;SDS011;62348;51.412;5.436;2022-11-15T05:33:17;40.42;;;25.60;;
73980;SDS011;62348;51.412;5.436;2022-11-15T05:35:45;43.65;;;24.88;;
73980;SDS011;62348;51.412;5.436;2022-11-15T05:38:15;42.35;;;25.15;;
73980;SDS011;62348;51.412;5.436;2022-11-15T05:40:41;36.63;;;23.35;;
73980;SDS011;62348;51.412;5.436;2022-11-15T05:43:06;40.40;;;25.02;;
73980;SDS011;62348;51.412;5.436;2022-11-15T05:45:32;39.28;;;24.13;;
73980;SDS011;62348;51.412;5.436;2022-11-15T05:47:59;39.25;;;25.00;;
73980;SDS011;62348;51.412;5.436;2022-11-15T05:50:28;40.05;;;24.02;;
73980;SDS011;62348;51.412;5.436;2022-11-15T05:52:54;35.80;;;24.80;;
73980;SDS011;62348;51.412;5.436;2022-11-15T05:55:20;38.05;;;24.92;;
73980;SDS011;62348;51.412;5.436;2022-11-15T05:57:45;43.83;;;26.50;;
73980;SDS011;62348;51.412;5.436;2022-11-15T06:00:11;46.80;;;27.45;;
73980;SDS011;62348;51.412;5.436;2022-11-15T06:02:37;43.28;;;25.95;;
73980;SDS011;62348;51.412;5.436;2022-11-15T06:05:03;40.92;;;26.63;;
73980;SDS011;62348;51.412;5.436;2022-11-15T06:07:29;45.80;;;28.73;;
73980;SDS011;62348;51.412;5.436;2022-11-15T06:09:54;42.28;;;26.48;;
73980;SDS011;62348;51.412;5.436;2022-11-15T06:12:22;44.67;;;27.05;;
73980;SDS011;62348;51.412;5.436;2022-11-15T06:14:47;49.63;;;29.05;;
73980;SDS011;62348;51.412;5.436;2022-11-15T06:17:13;47.58;;;27.33;;
73980;SDS011;62348;51.412;5.436;2022-11-15T06:19:38;45.13;;;27.45;;
73980;SDS011;62348;51.412;5.436;2022-11-15T06:22:04;47.72;;;28.48;;
73980;SDS011;62348;51.412;5.436;2022-11-15T06:24:29;43.72;;;27.48;;
73980;SDS011;62348;51.412;5.436;2022-11-15T06:26:54;38.30;;;25.83;;
73980;SDS011;62348;51.412;5.436;2022-11-15T06:29:20;37.17;;;23.73;;
73980;SDS011;62348;51.412;5.436;2022-11-15T06:31:45;37.28;;;23.17;;
73980;SDS011;62348;51.412;5.436;2022-11-15T06:34:11;30.75;;;21.08;;
73980;SDS011;62348;51.412;5.436;2022-11-15T06:36:36;36.90;;;21.98;;
73980;SDS011;62348;51.412;5.436;2022-11-15T06:39:02;35.80;;;21.45;;
73980;SDS011;62348;51.412;5.436;2022-11-15T06:41:29;31.85;;;21.63;;
73980;SDS011;62348;51.412;5.436;2022-11-15T06:43:54;31.20;;;19.90;;
73980;SDS011;62348;51.412;5.436;2022-11-15T06:46:20;33.03;;;20.88;;
73980;SDS011;62348;51.412;5.436;2022-11-15T06:48:45;28.83;;;19.40;;
73980;SDS011;62348;51.412;5.436;2022-11-15T06:51:11;30.10;;;20.17;;
73980;SDS011;62348;51.412;5.436;2022-11-15T06:53:36;33.33;;;21.00;;
73980;SDS011;62348;51.412;5.436;2022-11-15T06:56:02;36.20;;;20.23;;
73980;SDS011;62348;51.412;5.436;2022-11-15T06:58:29;31.80;;;20.30;;
73980;SDS011;62348;51.412;5.436;2022-11-15T07:00:59;30.48;;;20.10;;
73980;SDS011;62348;51.412;5.436;2022-11-15T07:03:26;28.98;;;19.52;;
73980;SDS011;62348;51.412;5.436;2022-11-15T07:05:52;30.08;;;20.20;;
73980;SDS011;62348;51.412;5.436;2022-11-15T07:08:19;33.28;;;21.70;;
73980;SDS011;62348;51.412;5.436;2022-11-15T07:10:45;38.25;;;22.40;;
73980;SDS011;62348;51.412;5.436;2022-11-15T07:13:10;31.27;;;20.90;;
73980;SDS011;62348;51.412;5.436;2022-11-15T07:15:36;35.42;;;20.13;;
73980;SDS011;62348;51.412;5.436;2022-11-15T07:18:01;33.33;;;21.40;;
73980;SDS011;62348;51.412;5.436;2022-11-15T07:20:27;34.47;;;19.65;;
73980;SDS011;62348;51.412;5.436;2022-11-15T07:22:59;32.15;;;20.63;;
73980;SDS011;62348;51.412;5.436;2022-11-15T07:25:28;30.75;;;19.77;;
73980;SDS011;62348;51.412;5.436;2022-11-15T07:27:54;26.10;;;18.77;;
73980;SDS011;62348;51.412;5.436;2022-11-15T07:30:20;30.20;;;18.92;;
73980;SDS011;62348;51.412;5.436;2022-11-15T07:32:45;26.05;;;18.17;;
73980;SDS011;62348;51.412;5.436;2022-11-15T07:35:11;31.50;;;18.15;;
73980;SDS011;62348;51.412;5.436;2022-11-15T07:37:37;25.70;;;18.10;;
73980;SDS011;62348;51.412;5.436;2022-11-15T07:40:02;25.80;;;18.17;;
73980;SDS011;62348;51.412;5.436;2022-11-15T07:42:30;29.45;;;17.20;;
73980;SDS011;62348;51.412;5.436;2022-11-15T07:45:15;25.10;;;16.88;;
73980;SDS011;62348;51.412;5.436;2022-11-15T07:47:40;24.70;;;16.52;;
73980;SDS011;62348;51.412;5.436;2022-11-15T07:50:05;26.17;;;17.30;;
73980;SDS011;62348;51.412;5.436;2022-11-15T07:52:31;24.55;;;16.05;;
73980;SDS011;62348;51.412;5.436;2022-11-15T07:54:56;22.50;;;15.80;;
73980;SDS011;62348;51.412;5.436;2022-11-15T07:57:22;23.25;;;15.90;;
73980;SDS011;62348;51.412;5.436;2022-11-15T07:59:47;22.13;;;14.73;;
73980;SDS011;62348;51.412;5.436;2022-11-15T08:02:12;20.20;;;14.82;;
73980;SDS011;62348;51.412;5.436;2022-11-15T08:04:38;22.83;;;14.63;;
73980;SDS011;62348;51.412;5.436;2022-11-15T08:07:03;20.25;;;13.68;;
73980;SDS011;62348;51.412;5.436;2022-11-15T08:09:29;20.35;;;14.02;;
73980;SDS011;62348;51.412;5.436;2022-11-15T08:11:54;19.90;;;14.00;;
73980;SDS011;62348;51.412;5.436;2022-11-15T08:14:19;19.83;;;13.35;;
73980;SDS011;62348;51.412;5.436;2022-11-15T08:16:46;18.33;;;13.57;;
73980;SDS011;62348;51.412;5.436;2022-11-15T08:19:12;21.45;;;13.45;;
73980;SDS011;62348;51.412;5.436;2022-11-15T08:21:37;17.88;;;12.75;;
73980;SDS011;62348;51.412;5.436;2022-11-15T08:24:03;18.08;;;12.90;;
73980;SDS011;62348;51.412;5.436;2022-11-15T08:26:28;15.77;;;11.70;;
73980;SDS011;62348;51.412;5.436;2022-11-15T08:28:55;19.95;;;12.05;;
73980;SDS011;62348;51.412;5.436;2022-11-15T08:31:20;16.25;;;12.20;;
73980;SDS011;62348;51.412;5.436;2022-11-15T08:33:45;16.45;;;11.43;;
73980;SDS011;62348;51.412;5.436;2022-11-15T08:36:15;15.05;;;11.32;;
73980;SDS011;62348;51.412;5.436;2022-11-15T08:38:41;16.20;;;10.55;;
73980;SDS011;62348;51.412;5.436;2022-11-15T08:41:10;14.30;;;10.43;;
73980;SDS011;62348;51.412;5.436;2022-11-15T08:43:38;12.88;;;10.48;;
73980;SDS011;62348;51.412;5.436;2022-11-15T08:46:03;11.23;;;9.48;;
73980;SDS011;62348;51.412;5.436;2022-11-15T08:48:29;11.57;;;9.93;;
73980;SDS011;62348;51.412;5.436;2022-11-15T08:50:55;14.70;;;9.27;;
73980;SDS011;62348;51.412;5.436;2022-11-15T08:53:21;15.00;;;8.80;;
73980;SDS011;62348;51.412;5.436;2022-11-15T08:55:47;11.82;;;9.55;;
73980;SDS011;62348;51.412;5.436;2022-11-15T08:58:12;11.73;;;8.57;;
73980;SDS011;62348;51.412;5.436;2022-11-15T09:00:38;11.65;;;8.25;;
73980;SDS011;62348;51.412;5.436;2022-11-15T09:03:04;8.93;;;7.30;;
73980;SDS011;62348;51.412;5.436;2022-11-15T09:05:30;10.80;;;6.88;;
73980;SDS011;62348;51.412;5.436;2022-11-15T09:07:56;9.43;;;6.65;;
73980;SDS011;62348;51.412;5.436;2022-11-15T09:10:21;11.20;;;6.32;;
73980;SDS011;62348;51.412;5.436;2022-11-15T09:12:47;9.60;;;5.82;;
73980;SDS011;62348;51.412;5.436;2022-11-15T09:15:13;8.70;;;5.60;;
73980;SDS011;62348;51.412;5.436;2022-11-15T09:17:40;7.55;;;4.63;;
73980;SDS011;62348;51.412;5.436;2022-11-15T09:20:05;6.25;;;5.07;;
73980;SDS011;62348;51.412;5.436;2022-11-15T09:22:31;5.60;;;4.28;;
73980;SDS011;62348;51.412;5.436;2022-11-15T09:24:57;8.25;;;4.60;;
73980;SDS011;62348;51.412;5.436;2022-11-15T09:27:22;7.13;;;4.30;;
73980;SDS011;62348;51.412;5.436;2022-11-15T09:29:47;5.22;;;3.60;;
73980;SDS011;62348;51.412;5.436;2022-11-15T09:32:13;3.95;;;3.13;;
73980;SDS011;62348;51.412;5.436;2022-11-15T09:34:38;3.63;;;2.42;;
73980;SDS011;62348;51.412;5.436;2022-11-15T09:37:04;7.85;;;3.10;;
73980;SDS011;62348;51.412;5.436;2022-11-15T09:39:29;4.93;;;2.47;;
73980;SDS011;62348;51.412;5.436;2022-11-15T09:50:08;3.72;;;1.50;;
73980;SDS011;62348;51.412;5.436;2022-11-15T09:52:36;5.88;;;1.75;;
73980;SDS011;62348;51.412;5.436;2022-11-15T09:55:04;4.07;;;1.70;;
73980;SDS011;62348;51.412;5.436;2022-11-15T09:57:32;5.00;;;1.67;;
73980;SDS011;62348;51.412;5.436;2022-11-15T10:02:50;6.38;;;1.90;;
73980;SDS011;62348;51.412;5.436;2022-11-15T10:05:19;4.95;;;1.55;;
73980;SDS011;62348;51.412;5.436;2022-11-15T10:10:44;4.85;;;1.55;;
73980;SDS011;62348;51.412;5.436;2022-11-15T10:13:24;8.93;;;2.10;;
73980;SDS011;62348;51.412;5.436;2022-11-15T10:15:52;4.53;;;1.45;;
73980;SDS011;62348;51.412;5.436;2022-11-15T10:21:15;5.03;;;1.70;;
73980;SDS011;62348;51.412;5.436;2022-11-15T10:23:44;6.13;;;1.58;;
73980;SDS011;62348;51.412;5.436;2022-11-15T10:26:11;5.57;;;1.65;;
73980;SDS011;62348;51.412;5.436;2022-11-15T10:28:40;3.42;;;1.40;;
73980;SDS011;62348;51.412;5.436;2022-11-15T10:31:11;4.22;;;1.98;;
73980;SDS011;62348;51.412;5.436;2022-11-15T10:33:50;3.28;;;1.55;;
73980;SDS011;62348;51.412;5.436;2022-11-15T10:36:17;2.70;;;1.85;;
73980;SDS011;62348;51.412;5.436;2022-11-15T10:41:14;2.65;;;1.88;;
73980;SDS011;62348;51.412;5.436;2022-11-15T10:46:31;4.20;;;1.55;;
73980;SDS011;62348;51.412;5.436;2022-11-15T10:49:11;5.65;;;1.92;;
73980;SDS011;62348;51.412;5.436;2022-11-15T10:51:45;3.55;;;1.77;;
73980;SDS011;62348;51.412;5.436;2022-11-15T10:54:13;8.05;;;1.90;;
73980;SDS011;62348;51.412;5.436;2022-11-15T10:56:43;3.58;;;1.50;;
73980;SDS011;62348;51.412;5.436;2022-11-15T10:59:16;7.07;;;2.00;;
73980;SDS011;62348;51.412;5.436;2022-11-15T11:01:48;6.35;;;1.90;;
73980;SDS011;62348;51.412;5.436;2022-11-15T11:04:14;7.68;;;1.55;;
73980;SDS011;62348;51.412;5.436;2022-11-15T11:07:19;4.22;;;1.70;;
73980;SDS011;62348;51.412;5.436;2022-11-15T11:09:44;6.82;;;1.45;;
73980;SDS011;62348;51.412;5.436;2022-11-15T11:12:10;4.32;;;1.45;;
73980;SDS011;62348;51.412;5.436;2022-11-15T11:14:37;4.50;;;1.80;;
73980;SDS011;62348;51.412;5.436;2022-11-15T11:17:16;3.78;;;1.67;;
73980;SDS011;62348;51.412;5.436;2022-11-15T11:25:48;6.80;;;1.67;;
73980;SDS011;62348;51.412;5.436;2022-11-15T11:28:41;7.15;;;2.13;;
73980;SDS011;62348;51.412;5.436;2022-11-15T11:31:31;6.57;;;1.77;;
73980;SDS011;62348;51.412;5.436;2022-11-15T11:40:14;4.40;;;1.33;;
73980;SDS011;62348;51.412;5.436;2022-11-15T11:45:22;4.85;;;1.25;;
73980;SDS011;62348;51.412;5.436;2022-11-15T11:50:58;8.00;;;1.77;;
73980;SDS011;62348;51.412;5.436;2022-11-15T11:53:31;4.20;;;1.20;;
73980;SDS011;62348;51.412;5.436;2022-11-15T11:56:08;6.38;;;1.10;;
73980;SDS011;62348;51.412;5.436;2022-11-15T11:58:44;4.03;;;1.10;;
73980;SDS011;62348;51.412;5.436;2022-11-15T12:01:55;7.35;;;2.00;;
73980;SDS011;62348;51.412;5.436;2022-11-15T12:04:15;6.05;;;1.13;;
73980;SDS011;62348;51.412;5.436;2022-11-15T12:07:03;5.05;;;1.35;;
73980;SDS011;62348;51.412;5.436;2022-11-15T12:15:01;6.28;;;1.33;;
73980;SDS011;62348;51.412;5.436;2022-11-15T12:17:46;4.85;;;1.45;;
73980;SDS011;62348;51.412;5.436;2022-11-15T12:20:16;7.78;;;1.63;;
73980;SDS011;62348;51.412;5.436;2022-11-15T12:28:01;5.82;;;1.60;;
73980;SDS011;62348;51.412;5.436;2022-11-15T12:30:36;6.90;;;1.63;;
73980;SDS011;62348;51.412;5.436;2022-11-15T12:36:07;5.78;;;1.63;;
73980;SDS011;62348;51.412;5.436;2022-11-15T12:41:23;6.43;;;1.40;;
73980;SDS011;62348;51.412;5.436;2022-11-15T12:43:54;4.35;;;1.23;;
73980;SDS011;62348;51.412;5.436;2022-11-15T12:46:21;5.38;;;1.48;;
73980;SDS011;62348;51.412;5.436;2022-11-15T12:49:16;3.55;;;1.05;;
73980;SDS011;62348;51.412;5.436;2022-11-15T12:59:52;3.45;;;1.15;;
73980;SDS011;62348;51.412;5.436;2022-11-15T13:02:20;6.57;;;1.02;;
73980;SDS011;62348;51.412;5.436;2022-11-15T13:04:47;4.72;;;1.10;;
73980;SDS011;62348;51.412;5.436;2022-11-15T13:13:04;6.30;;;1.30;;
73980;SDS011;62348;51.412;5.436;2022-11-15T13:18:31;2.90;;;1.10;;
73980;SDS011;62348;51.412;5.436;2022-11-15T13:21:02;6.68;;;1.20;;
73980;SDS011;62348;51.412;5.436;2022-11-15T13:23:53;3.70;;;1.17;;
73980;SDS011;62348;51.412;5.436;2022-11-15T13:26:19;3.15;;;1.10;;
73980;SDS011;62348;51.412;5.436;2022-11-15T13:28:47;4.10;;;1.20;;
73980;SDS011;62348;51.412;5.436;2022-11-15T13:31:24;8.50;;;2.47;;
73980;SDS011;62348;51.412;5.436;2022-11-15T13:33:53;6.25;;;1.67;;
73980;SDS011;62348;51.412;5.436;2022-11-15T13:36:23;7.10;;;1.33;;
73980;SDS011;62348;51.412;5.436;2022-11-15T13:38:58;7.00;;;1.23;;
73980;SDS011;62348;51.412;5.436;2022-11-15T13:41:27;4.88;;;1.00;;
73980;SDS011;62348;51.412;5.436;2022-11-15T13:43:55;6.13;;;1.20;;
73980;SDS011;62348;51.412;5.436;2022-11-15T13:46:28;3.97;;;1.00;;
73980;SDS011;62348;51.412;5.436;2022-11-15T13:49:05;1.90;;;1.00;;
73980;SDS011;62348;51.412;5.436;2022-11-15T13:54:09;2.83;;;1.15;;
73980;SDS011;62348;51.412;5.436;2022-11-15T13:56:47;4.72;;;1.10;;
73980;SDS011;62348;51.412;5.436;2022-11-15T13:59:31;3.80;;;1.30;;
73980;SDS011;62348;51.412;5.436;2022-11-15T14:02:01;4.78;;;1.30;;
73980;SDS011;62348;51.412;5.436;2022-11-15T14:04:35;3.28;;;1.35;;
73980;SDS011;62348;51.412;5.436;2022-11-15T14:07:04;3.72;;;1.90;;
73980;SDS011;62348;51.412;5.436;2022-11-15T14:09:31;6.07;;;1.52;;
73980;SDS011;62348;51.412;5.436;2022-11-15T14:11:59;4.80;;;1.67;;
73980;SDS011;62348;51.412;5.436;2022-11-15T14:14:29;5.90;;;1.33;;
73980;SDS011;62348;51.412;5.436;2022-11-15T14:16:56;2.50;;;1.08;;
73980;SDS011;62348;51.412;5.436;2022-11-15T14:30:39;3.28;;;1.58;;
73980;SDS011;62348;51.412;5.436;2022-11-15T14:33:28;8.07;;;1.17;;
73980;SDS011;62348;51.412;5.436;2022-11-15T14:35:54;4.80;;;1.05;;
73980;SDS011;62348;51.412;5.436;2022-11-15T14:38:22;4.53;;;1.20;;
73980;SDS011;62348;51.412;5.436;2022-11-15T14:40:50;5.43;;;1.65;;
73980;SDS011;62348;51.412;5.436;2022-11-15T14:43:15;2.67;;;0.93;;
73980;SDS011;62348;51.412;5.436;2022-11-15T14:45:41;9.88;;;2.25;;
73980;SDS011;62348;51.412;5.436;2022-11-15T14:48:07;4.00;;;1.17;;
73980;SDS011;62348;51.412;5.436;2022-11-15T14:50:32;3.08;;;1.00;;
73980;SDS011;62348;51.412;5.436;2022-11-15T14:53:00;3.88;;;1.30;;
73980;SDS011;62348;51.412;5.436;2022-11-15T14:55:26;5.57;;;1.38;;
73980;SDS011;62348;51.412;5.436;2022-11-15T14:57:54;3.83;;;1.20;;
73980;SDS011;62348;51.412;5.436;2022-11-15T15:00:20;3.25;;;1.15;;
73980;SDS011;62348;51.412;5.436;2022-11-15T15:02:47;4.63;;;1.42;;
73980;SDS011;62348;51.412;5.436;2022-11-15T15:05:20;4.55;;;1.35;;
73980;SDS011;62348;51.412;5.436;2022-11-15T15:07:57;4.40;;;1.50;;
73980;SDS011;62348;51.412;5.436;2022-11-15T15:10:22;8.13;;;1.80;;
73980;SDS011;62348;51.412;5.436;2022-11-15T15:12:49;6.10;;;1.83;;
73980;SDS011;62348;51.412;5.436;2022-11-15T15:15:16;4.93;;;1.85;;
73980;SDS011;62348;51.412;5.436;2022-11-15T15:17:46;13.77;;;3.47;;
73980;SDS011;62348;51.412;5.436;2022-11-15T15:20:12;5.47;;;1.63;;
73980;SDS011;62348;51.412;5.436;2022-11-15T15:22:37;3.78;;;1.50;;
73980;SDS011;62348;51.412;5.436;2022-11-15T15:25:08;8.43;;;1.98;;
73980;SDS011;62348;51.412;5.436;2022-11-15T15:27:44;7.43;;;2.17;;
73980;SDS011;62348;51.412;5.436;2022-11-15T15:30:10;5.85;;;1.80;;
73980;SDS011;62348;51.412;5.436;2022-11-15T15:32:35;3.30;;;1.60;;
73980;SDS011;62348;51.412;5.436;2022-11-15T15:35:01;5.45;;;1.80;;
73980;SDS011;62348;51.412;5.436;2022-11-15T15:37:26;4.05;;;1.70;;
73980;SDS011;62348;51.412;5.436;2022-11-15T15:39:52;5.63;;;2.55;;
73980;SDS011;62348;51.412;5.436;2022-11-15T15:42:19;5.10;;;1.80;;
73980;SDS011;62348;51.412;5.436;2022-11-15T15:44:46;5.65;;;1.92;;
73980;SDS011;62348;51.412;5.436;2022-11-15T15:47:12;2.83;;;1.58;;
73980;SDS011;62348;51.412;5.436;2022-11-15T15:49:43;6.57;;;1.98;;
73980;SDS011;62348;51.412;5.436;2022-11-15T15:52:08;5.53;;;1.95;;
73980;SDS011;62348;51.412;5.436;2022-11-15T15:54:34;6.18;;;3.00;;
73980;SDS011;62348;51.412;5.436;2022-11-15T15:56:59;5.65;;;2.92;;
73980;SDS011;62348;51.412;5.436;2022-11-15T15:59:25;5.68;;;2.35;;
73980;SDS011;62348;51.412;5.436;2022-11-15T16:01:50;5.05;;;2.05;;
73980;SDS011;62348;51.412;5.436;2022-11-15T16:04:16;9.20;;;3.30;;
73980;SDS011;62348;51.412;5.436;2022-11-15T16:06:41;6.47;;;2.15;;
73980;SDS011;62348;51.412;5.436;2022-11-15T16:09:12;6.35;;;2.33;;
73980;SDS011;62348;51.412;5.436;2022-11-15T16:11:40;4.22;;;2.35;;
73980;SDS011;62348;51.412;5.436;2022-11-15T16:14:06;5.60;;;2.25;;
73980;SDS011;62348;51.412;5.436;2022-11-15T16:16:32;4.25;;;1.80;;
73980;SDS011;62348;51.412;5.436;2022-11-15T16:18:59;4.18;;;2.10;;
73980;SDS011;62348;51.412;5.436;2022-11-15T16:21:25;4.03;;;2.83;;
73980;SDS011;62348;51.412;5.436;2022-11-15T16:23:51;2.55;;;2.00;;
73980;SDS011;62348;51.412;5.436;2022-11-15T16:26:26;6.43;;;2.33;;
73980;SDS011;62348;51.412;5.436;2022-11-15T16:28:53;3.42;;;2.35;;
73980;SDS011;62348;51.412;5.436;2022-11-15T16:31:19;3.70;;;2.20;;
73980;SDS011;62348;51.412;5.436;2022-11-15T16:33:48;3.60;;;2.50;;
73980;SDS011;62348;51.412;5.436;2022-11-15T16:38:49;3.60;;;2.38;;
73980;SDS011;62348;51.412;5.436;2022-11-15T16:41:15;7.07;;;2.80;;
73980;SDS011;62348;51.412;5.436;2022-11-15T16:43:43;5.35;;;3.13;;